Terminal Aerodrome Forecast
Issued by NWS Cleveland, OH

Home | Current Version | Previous Version | Graphics & Text | Print | Product List | Glossary On
Versions: 1 2 3 4 5 6 7 8 9 10 11 12 13 14 15 16 17 18
660
FTUS41 KCLE 250533
TAFCAK
TAF
KCAK 250533Z 2506/2606 12012KT P6SM BKN050 OVC150
     FM251100 12012KT P6SM VCSH SCT025 OVC035
     FM251800 13012KT P6SM BKN040
     FM260200 12008KT P6SM SCT040 BKN150=

USA.gov is the U.S. government's official web portal to all federal, state and local government web resources and services.